ADDS METAR Data INFO
IDs: Format: Raw Decoded Include TAF

Data at: 1132 UTC 29 May 2017

KLBX 291053Z AUTO 11010G17KT 10SM CLR 24/22 A2992 RMK AO2 LTG DSNT SW PRESRR SLP131 T02440217
KLBX 290953Z AUTO 10012G20KT 10SM CLR 23/21 A2986 RMK AO2 SLP111 T02330211
KLBX 290853Z AUTO 06007KT 10SM CLR 22/19 A2988 RMK AO2 RAE36 SLP119 P0002 60018 T02220194 58043
KLBX 290834Z AUTO 09008KT 10SM -RA FEW075 SCT090 22/19 A2990 RMK AO2 PRESFR P0002 T02220194
KLBX 290753Z AUTO 09005KT 10SM VCTS -RA BKN110 22/20 A2996 RMK AO2 PK WND 01028/0655 LTG DSNT N TSB07E34 SLP143 P0005 T02170200
KLBX 290740Z AUTO 02005KT 10SM VCTS -RA OVC110 22/20 A2997 RMK AO2 PK WND 01028/0655 LTG DSNT SW-N TSB07E34 P0004 T02170200
KLBX 290713Z AUTO 02013KT 8SM TSRA FEW010 BKN070 OVC090 22/21 A3000 RMK AO2 PK WND 01028/0655 LTG DSNT W-NE TSB07 P0004 T02170206
KLBX 290653Z AUTO 01020G27KT 4SM VCTS RA BR FEW010 BKN034 OVC048 22/21 A3000 RMK AO2 PK WND 35036/0643 LTG DSNT W-NE RAB34 SLP159 P0011 T02220206
KLBX 290643Z AUTO 36027G36KT 4SM VCTS +RA BR FEW012 BKN034 OVC044 23/21 A3002 RMK AO2 PK WND 35036/0643 LTG DSNT W-NE RAB34 PRESRR P0006 T02280206
KLBX 290635Z AUTO 02019G31KT 10SM VCTS -RA FEW010 BKN025 OVC043 24/21 A3000 RMK AO2 PK WND 04031/0624 LTG DSNT ALQDS RAB34 P0000 T02390206
KLBX 290553Z AUTO 09005KT 8SM BKN022 OVC090 27/26 A2998 RMK AO2 LTG DSNT N AND NW SLP152 T02670256 10294 20267 403220267 58007
KLBX 290453Z AUTO 13007KT 8SM OVC028 27/26 A3000 RMK AO2 LTG DSNT N SLP158 T02720256
KLBX 290451Z AUTO 13006KT 8SM FEW012 OVC028 27/26 A3000 RMK AO2 LTG DSNT N
KLBX 290353Z AUTO 09004KT 9SM FEW025 BKN034 OVC041 27/26 A3000 RMK AO2 SLP159 T02720256
KLBX 290345Z AUTO 05004KT 8SM SCT023 OVC039 27/26 A3001 RMK AO2 T02720256
KLBX 290253Z AUTO 04006KT 9SM SCT016 OVC025 27/25 A2995 RMK AO2 PRESRR SLP141 T02720250 53037
KLBX 290206Z AUTO 12003KT 9SM SCT013 OVC019 28/25 A2991 RMK AO2 PRESRR T02780250
KLBX 290153Z AUTO 15004KT 9SM BKN013 OVC018 28/25 A2989 RMK AO2 SLP122 T02780250
KLBX 290118Z AUTO 18006KT 9SM BKN013 OVC018 27/26 A2985 RMK AO2 T02720256
KLBX 290053Z AUTO 18011KT 8SM FEW015 BKN020 28/25 A2984 RMK AO2 SLP104 T02780250
KLBX 290023Z AUTO 16013KT 9SM SCT020 28/24 A2983 RMK AO2 T02830244
KLBX 282353Z AUTO 17010KT 10SM OVC020 29/25 A2984 RMK AO2 SLP104 T02940250 10322 20289 58019
KLBX 282336Z AUTO 15011KT 10SM BKN020 29/25 A2984 RMK AO2 T02940250
KLBX 282253Z AUTO 16011KT 10SM FEW023 SCT030 29/24 A2986 RMK AO2 SLP109 T02940244
KLBX 282153Z AUTO 13010KT 10SM SCT019 OVC029 30/25 A2990 RMK AO2 SLP123 T03000250
KLBX 282151Z AUTO 14009KT 10SM SCT019 OVC029 30/25 A2990 RMK AO2
KLBX 282053Z AUTO 16009G15KT 10SM FEW022 BKN034 32/25 A2992 RMK AO2 SLP130 T03170250 56016
KLBX 281953Z AUTO 15011KT 10SM SCT024 31/25 A2993 RMK AO2 SLP133 T03110250
KLBX 281853Z AUTO 13013KT 10SM SCT025 SCT036 BKN100 32/26 A2994 RMK AO2 SLP137 T03170256
KLBX 281753Z AUTO 16011KT 10SM FEW022 OVC100 31/25 A2996 RMK AO2 SLP146 60000 T03110250 10317 20272 50008
KLBX 281734Z AUTO 15010KT 10SM SCT020 SCT028 BKN090 31/26 A2996 RMK AO2 LTG DSNT NW T03110256
KLBX 281703Z AUTO 13008KT 10SM SCT020 BKN027 BKN035 31/26 A2997 RMK AO2 T03060256
KLBX 281653Z AUTO 13009KT 10SM SCT022 SCT029 BKN035 31/26 A2997 RMK AO2 SLP149 T03110256
KLBX 281627Z AUTO 13009KT 10SM SCT023 BKN030 BKN039 31/26 A2997 RMK AO2 T03060256
KLBX 281611Z AUTO 15008KT 10SM BKN021 BKN027 OVC038 31/25 A2997 RMK AO2 T03060250
KLBX 281553Z AUTO 17007KT 10SM SCT019 SCT024 BKN034 31/26 A2996 RMK AO2 RAB25E35 SLP145 P0000 T03110256
KLBX 281525Z AUTO 16008KT 10SM -RA FEW019 BKN044 OVC055 29/25 A2995 RMK AO2 RAB25 P0000 T02940250
KLBX 281510Z AUTO 17006KT 10SM SCT019 BKN024 OVC040 29/25 A2995 RMK AO2 T02940250
KLBX 281453Z AUTO 19008KT 10SM FEW018 BKN030 OVC036 29/25 A2994 RMK AO2 SLP138 T02940250 51027
KLBX 281422Z AUTO 19010KT 10SM OVC030 29/25 A2993 RMK AO2 T02940250
KLBX 281353Z AUTO 19007KT 10SM OVC029 29/25 A2992 RMK AO2 SLP132 T02890250
KLBX 281253Z AUTO 20008KT 10SM OVC024 28/25 A2988 RMK AO2 SLP119 T02780250
KLBX 281153Z AUTO 19009KT 8SM FEW016 OVC021 27/25 A2986 RMK AO2 SLP111 T02720250 10278 20272 53004
KLBX 281053Z AUTO 19011KT 9SM SCT014 OVC021 27/25 A2983 RMK AO2 SLP100 T02720250
KLBX 280953Z AUTO 19009KT 9SM BKN015 OVC019 27/25 A2983 RMK AO2 SLP100 T02720250
KLBX 280901Z AUTO 20009KT 10SM SCT014 OVC023 28/25 A2984 RMK AO2 T02780250
KLBX 280853Z AUTO 19008KT 10SM BKN014 OVC023 28/26 A2985 RMK AO2 SLP106 T02780256 58007
KLBX 280753Z AUTO 20011KT 10SM BKN014 OVC019 28/26 A2986 RMK AO2 SLP111 T02780256
KLBX 280653Z AUTO 20011KT 10SM OVC016 28/25 A2987 RMK AO2 SLP115 T02780250
KLBX 280613Z AUTO 18016KT 10SM OVC015 28/25 A2987 RMK AO2 T02780250
KLBX 280553Z AUTO 18013KT 10SM BKN013 OVC019 28/26 A2987 RMK AO2 SLP114 T02780256 10289 20272 403170272 58007
KLBX 280453Z AUTO 16014KT 10SM FEW013 OVC022 28/26 A2988 RMK AO2 SLP119 T02780256
KLBX 280353Z AUTO 16011KT 10SM BKN025 28/25 A2989 RMK AO2 SLP121 T02780250
KLBX 280253Z AUTO 15008KT 10SM FEW016 BKN024 28/25 A2989 RMK AO2 SLP121 T02780250 53001
KLBX 280227Z AUTO 15007KT 10SM FEW018 BKN024 27/25 A2989 RMK AO2 T02720250
KLBX 280217Z AUTO 16006KT 10SM SCT021 27/25 A2989 RMK AO2 T02720250
KLBX 280153Z AUTO 14008KT 10SM FEW017 BKN023 28/25 A2988 RMK AO2 SLP119 T02780250
KLBX 280053Z AUTO 16008KT 10SM BKN020 28/24 A2988 RMK AO2 SLP118 T02830244
KLBX 280022Z AUTO 17008KT 10SM BKN019 28/24 A2988 RMK AO2 T02830244
KLBX 280003Z AUTO 16012KT 10SM SCT019 28/24 A2988 RMK AO2 T02830244
KLBX 272353Z AUTO 17010KT 10SM BKN019 29/24 A2989 RMK AO2 SLP120 T02890244 10317 20289 58006


Page loaded:  11:32 UTC  |   04:32 AM Pacific  |   05:32 AM Mountain  |   06:32 AM Central  |   07:32 AM Eastern

 

ADVISORIES

FORECASTS

FORECASTS

OBSERVATIONS

USER TOOLS

ABOUT US